Time;durP1;ratioP1;P1;durP2;ratioP2;P2;SDS_P1;SDS_P2;PMS_P1;PMS_P2;Temp;Humidity;BMP_temperature;BMP_pressure;BME280_temperature;BME280_humidity;BME280_pressure;Samples;Min_cycle;Max_cycle;Signal;HPM_P1;HPM_P2
2021/05/02 00:01:19;;;;;;;22.67;17.65;;;9.40;1.00;;;;;;5030252;28;20036;-85
2021/05/02 00:03:45;;;;;;;23.23;17.70;;;9.50;1.00;;;;;;5030659;28;20091;-85
2021/05/02 00:06:12;;;;;;;22.40;17.35;;;9.50;1.00;;;;;;5031993;28;20091;-85
2021/05/02 00:08:38;;;;;;;21.00;16.85;;;9.60;1.00;;;;;;5030735;28;20036;-85
2021/05/02 00:11:08;;;;;;;23.83;18.17;;;9.60;1.00;;;;;;5028219;28;20489;-86
2021/05/02 00:13:34;;;;;;;23.85;18.48;;;9.60;1.00;;;;;;5030288;28;20032;-85
2021/05/02 00:16:00;;;;;;;23.83;17.90;;;9.60;1.00;;;;;;5030463;28;20040;-86
2021/05/02 00:18:27;;;;;;;22.25;18.05;;;9.60;1.00;;;;;;5031903;28;20385;-85
2021/05/02 00:20:54;;;;;;;23.95;18.58;;;9.70;1.00;;;;;;5030682;28;20098;-86
2021/05/02 00:23:19;;;;;;;20.45;16.70;;;9.60;1.00;;;;;;5030092;28;20025;-85
2021/05/02 00:25:47;;;;;;;20.70;17.25;;;10.00;1.00;;;;;;5031072;28;20589;-85
2021/05/02 00:28:14;;;;;;;21.83;18.25;;;9.60;1.00;;;;;;5029968;28;20045;-85
2021/05/02 00:30:41;;;;;;;25.45;18.40;;;9.60;1.00;;;;;;5031960;28;20037;-85
2021/05/02 00:33:07;;;;;;;28.30;20.65;;;9.50;1.00;;;;;;5033651;28;20045;-85
2021/05/02 00:35:34;;;;;;;25.75;20.27;;;9.50;1.00;;;;;;5034042;28;20049;-85
2021/05/02 00:37:59;;;;;;;34.78;24.77;;;9.40;1.00;;;;;;5034104;28;20404;-85
2021/05/02 00:40:41;;;;;;;30.23;22.63;;;9.40;1.00;;;;;;5032825;28;20037;-85
2021/05/02 00:43:38;;;;;;;30.02;22.38;;;9.40;1.00;;;;;;5018825;28;20030;-85
2021/05/02 00:46:06;;;;;;;30.02;21.30;;;9.30;1.00;;;;;;5018694;28;20033;-85
2021/05/02 00:48:53;;;;;;;28.88;22.35;;;9.40;1.00;;;;;;5035065;28;20022;-85
2021/05/02 00:51:21;;;;;;;28.10;21.33;;;9.30;1.00;;;;;;5035261;28;20044;-85
2021/05/02 00:54:05;;;;;;;30.60;20.88;;;9.30;1.00;;;;;;5033922;28;20034;-85
2021/05/02 00:56:35;;;;;;;26.17;19.90;;;9.20;1.00;;;;;;5033926;28;20025;-85
2021/05/02 00:59:04;;;;;;;27.77;19.63;;;9.20;1.00;;;;;;5032921;28;20030;-85
2021/05/02 01:01:35;;;;;;;25.70;19.40;;;9.60;1.00;;;;;;5034191;28;20041;-85
2021/05/02 01:04:03;;;;;;;25.70;19.23;;;9.20;1.00;;;;;;5033755;28;20104;-85
2021/05/02 01:06:31;;;;;;;25.25;19.88;;;9.10;1.00;;;;;;5034691;28;20030;-86
2021/05/02 01:09:00;;;;;;;26.80;19.38;;;9.20;1.00;;;;;;5034502;28;20025;-85
2021/05/02 01:11:27;;;;;;;26.65;19.45;;;9.20;1.00;;;;;;5031476;28;20446;-85
2021/05/02 01:13:56;;;;;;;25.58;18.77;;;9.30;1.00;;;;;;5033456;28;20056;-85
2021/05/02 01:16:24;;;;;;;26.42;19.65;;;9.20;1.00;;;;;;5033429;28;20021;-85
2021/05/02 01:18:52;;;;;;;24.30;18.58;;;9.20;1.00;;;;;;5033512;28;20493;-85
2021/05/02 01:21:18;;;;;;;22.60;18.60;;;9.20;1.00;;;;;;5035313;28;20359;-85
2021/05/02 01:23:44;;;;;;;25.67;19.27;;;9.20;1.00;;;;;;5033394;28;20402;-85
2021/05/02 01:26:14;;;;;;;25.67;19.98;;;9.20;1.00;;;;;;5031301;28;20033;-85
2021/05/02 01:28:42;;;;;;;29.80;20.15;;;9.20;1.00;;;;;;5031520;28;20043;-85
2021/05/02 01:31:07;;;;;;;24.38;18.58;;;9.20;1.00;;;;;;5033098;28;20056;-85
2021/05/02 01:33:34;;;;;;;25.20;18.73;;;9.20;1.00;;;;;;5033917;28;20077;-85
2021/05/02 01:36:00;;;;;;;24.20;19.08;;;9.20;1.00;;;;;;5033746;28;20087;-85
2021/05/02 01:38:26;;;;;;;27.13;19.83;;;9.20;1.00;;;;;;5033079;28;20033;-85
2021/05/02 01:40:54;;;;;;;26.25;19.42;;;9.20;1.00;;;;;;5030847;28;20029;-85
2021/05/02 01:43:21;;;;;;;23.98;19.15;;;9.10;1.00;;;;;;5032742;28;20789;-85
2021/05/02 01:45:53;;;;;;;24.00;19.17;;;9.40;1.00;;;;;;5032452;28;20068;-87
2021/05/02 01:48:22;;;;;;;25.20;18.55;;;8.90;1.00;;;;;;5034706;28;20386;-85
2021/05/02 01:50:57;;;;;;;27.13;18.90;;;8.70;1.00;;;;;;5032591;28;20165;-85
2021/05/02 01:53:23;;;;;;;26.08;19.13;;;8.60;1.00;;;;;;5032512;28;20049;-85
2021/05/02 01:55:52;;;;;;;27.67;20.98;;;8.60;1.00;;;;;;5032058;28;20467;-85
2021/05/02 01:58:20;;;;;;;25.92;19.10;;;8.30;1.00;;;;;;5033083;28;20025;-85
2021/05/02 02:00:51;;;;;;;26.63;18.90;;;8.30;1.00;;;;;;5032506;28;20026;-85
2021/05/02 02:03:18;;;;;;;24.40;18.33;;;8.30;1.00;;;;;;5034012;28;20018;-85
2021/05/02 02:05:44;;;;;;;26.38;19.63;;;8.30;1.00;;;;;;5032431;28;20501;-85
2021/05/02 02:08:10;;;;;;;30.65;19.50;;;8.20;1.00;;;;;;5026722;28;20405;-87
2021/05/02 02:10:37;;;;;;;26.13;18.85;;;8.10;1.00;;;;;;5031506;28;20104;-85
2021/05/02 02:13:03;;;;;;;24.65;18.33;;;8.10;1.00;;;;;;5032349;28;20056;-85
2021/05/02 02:15:30;;;;;;;26.55;18.10;;;8.00;1.00;;;;;;5034288;28;20136;-85
2021/05/02 02:17:56;;;;;;;26.67;18.05;;;8.00;1.00;;;;;;5033618;28;20036;-85
2021/05/02 02:20:23;;;;;;;26.63;18.05;;;7.90;1.00;;;;;;5032866;28;20410;-85
2021/05/02 02:22:54;;;;;;;26.67;18.20;;;7.90;1.00;;;;;;5031866;28;20030;-85
2021/05/02 02:25:23;;;;;;;24.67;17.52;;;7.80;1.00;;;;;;5031772;28;20102;-85
2021/05/02 02:27:51;;;;;;;29.23;18.25;;;7.80;1.00;;;;;;5032426;28;20040;-85
2021/05/02 02:30:19;;;;;;;27.92;18.63;;;7.80;1.00;;;;;;5033952;28;20013;-85
2021/05/02 02:32:47;;;;;;;26.08;19.00;;;7.80;1.00;;;;;;5031664;28;20136;-85
2021/05/02 02:35:18;;;;;;;25.13;17.65;;;7.80;1.00;;;;;;5032601;28;20064;-85
2021/05/02 02:37:46;;;;;;;28.63;18.40;;;7.80;1.00;;;;;;5032132;28;20029;-85
2021/05/02 02:40:15;;;;;;;25.85;19.02;;;7.80;1.00;;;;;;5030849;28;20136;-85
2021/05/02 02:42:45;;;;;;;27.80;18.20;;;7.70;1.00;;;;;;5031605;28;20017;-85
2021/05/02 02:45:12;;;;;;;25.08;17.52;;;7.70;1.00;;;;;;5032292;28;20025;-85
2021/05/02 02:47:44;;;;;;;26.52;18.83;;;7.80;1.00;;;;;;5030178;28;20474;-85
2021/05/02 02:50:12;;;;;;;27.95;19.25;;;7.80;1.00;;;;;;5031377;28;20035;-85
2021/05/02 02:52:55;;;;;;;26.17;18.85;;;7.80;1.00;;;;;;5031172;28;20021;-85
2021/05/02 02:55:25;;;;;;;25.85;18.80;;;7.80;1.00;;;;;;5031141;28;20125;-85
2021/05/02 02:57:58;;;;;;;24.98;18.48;;;7.70;1.00;;;;;;5031071;28;20025;-85
2021/05/02 03:00:28;;;;;;;27.05;19.08;;;7.70;1.00;;;;;;5029392;28;20041;-86
2021/05/02 03:03:04;;;;;;;27.10;19.40;;;8.00;1.00;;;;;;5031900;28;20033;-85
2021/05/02 03:05:32;;;;;;;28.67;18.63;;;7.60;1.00;;;;;;5030945;28;20048;-84
2021/05/02 03:08:01;;;;;;;25.42;17.60;;;7.60;1.00;;;;;;5031133;28;20079;-85
2021/05/02 03:10:28;;;;;;;29.67;18.60;;;7.60;1.00;;;;;;5031488;28;20021;-85
2021/05/02 03:12:55;;;;;;;27.67;19.08;;;7.70;1.00;;;;;;5031020;28;20037;-85
2021/05/02 03:15:22;;;;;;;24.15;17.88;;;7.60;1.00;;;;;;5048147;28;20117;-84
2021/05/02 03:18:06;;;;;;;25.98;16.98;;;7.60;1.00;;;;;;5031096;28;20037;-85
2021/05/02 03:20:38;;;;;;;25.02;18.27;;;7.40;1.00;;;;;;5030834;28;20049;-85
2021/05/02 03:23:14;;;;;;;26.02;18.23;;;7.50;1.00;;;;;;5029997;28;20021;-85
2021/05/02 03:25:42;;;;;;;33.50;19.90;;;7.50;1.00;;;;;;5029826;28;20037;-85
2021/05/02 03:28:12;;;;;;;26.88;19.25;;;7.50;1.00;;;;;;5031567;28;20037;-85
2021/05/02 03:30:41;;;;;;;25.80;19.35;;;7.60;1.00;;;;;;5031284;28;20017;-85
2021/05/02 03:33:11;;;;;;;28.67;19.08;;;7.60;1.00;;;;;;5030793;28;20057;-85
2021/05/02 03:35:41;;;;;;;26.17;17.60;;;7.60;1.00;;;;;;5030814;28;20033;-85
2021/05/02 03:38:22;;;;;;;26.45;18.20;;;7.60;1.00;;;;;;5028748;28;20029;-85
2021/05/02 03:40:50;;;;;;;28.95;17.92;;;7.70;1.00;;;;;;5025014;28;20042;-85
2021/05/02 03:43:17;;;;;;;29.77;19.67;;;7.70;1.00;;;;;;5030441;28;20021;-85
2021/05/02 03:45:43;;;;;;;26.42;18.52;;;7.80;1.00;;;;;;5030564;28;20486;-85
2021/05/02 03:48:08;;;;;;;26.90;18.83;;;7.90;1.00;;;;;;5032732;28;20025;-85
2021/05/02 03:50:35;;;;;;;26.75;18.45;;;8.00;1.00;;;;;;5030430;28;20041;-85
2021/05/02 03:53:02;;;;;;;28.52;19.40;;;8.10;1.00;;;;;;5029767;28;20029;-85
2021/05/02 03:55:27;;;;;;;25.08;18.60;;;8.10;1.00;;;;;;5030711;28;20486;-85
2021/05/02 03:57:53;;;;;;;27.67;19.05;;;8.10;1.00;;;;;;5030533;28;20121;-85
2021/05/02 04:00:19;;;;;;;24.45;17.00;;;7.90;1.00;;;;;;5047592;28;20046;-84
2021/05/02 04:02:45;;;;;;;22.80;15.68;;;7.90;1.00;;;;;;5030295;28;20026;-85
2021/05/02 04:05:10;;;;;;;21.10;15.35;;;8.00;1.00;;;;;;5027998;28;20033;-85
2021/05/02 04:07:36;;;;;;;21.80;15.98;;;7.80;1.00;;;;;;5029759;28;20022;-84
2021/05/02 04:10:03;;;;;;;20.55;14.73;;;7.90;1.00;;;;;;5030262;28;20064;-85
2021/05/02 04:12:28;;;;;;;22.35;16.77;;;7.80;1.00;;;;;;5031845;28;20025;-84
2021/05/02 04:14:54;;;;;;;22.42;16.92;;;7.80;1.00;;;;;;5030709;28;20398;-85
2021/05/02 04:17:20;;;;;;;19.63;14.73;;;8.00;1.00;;;;;;5030300;28;20033;-85
2021/05/02 04:19:52;;;;;;;19.23;15.82;;;8.10;1.00;;;;;;5029168;28;20061;-85
2021/05/02 04:22:19;;;;;;;19.80;15.57;;;8.10;1.00;;;;;;5030372;28;20441;-85
2021/05/02 04:24:49;;;;;;;22.00;15.45;;;8.20;1.00;;;;;;5030228;28;20037;-85
2021/05/02 04:27:15;;;;;;;19.38;15.05;;;8.20;1.00;;;;;;5032043;28;20033;-86
2021/05/02 04:29:41;;;;;;;18.92;14.75;;;8.30;1.00;;;;;;5029841;28;20450;-85
2021/05/02 04:32:07;;;;;;;18.42;14.77;;;8.20;1.00;;;;;;5028873;28;20413;-85
2021/05/02 04:34:32;;;;;;;20.52;16.23;;;8.30;1.00;;;;;;5029459;28;20068;-85
2021/05/02 04:36:58;;;;;;;19.20;14.90;;;8.40;1.00;;;;;;5030234;28;20467;-85
2021/05/02 04:39:24;;;;;;;19.50;15.00;;;8.30;1.00;;;;;;5032149;28;20033;-86
2021/05/02 04:41:51;;;;;;;19.48;14.82;;;8.40;1.00;;;;;;5029876;28;20095;-85
2021/05/02 04:44:17;;;;;;;18.92;15.57;;;8.40;1.00;;;;;;5029013;28;20045;-85
2021/05/02 04:46:43;;;;;;;19.55;14.85;;;8.50;1.00;;;;;;5029718;28;20022;-85
2021/05/02 04:49:10;;;;;;;19.08;15.23;;;8.50;1.00;;;;;;5028197;28;20391;-85
2021/05/02 04:51:36;;;;;;;18.58;14.50;;;8.40;1.00;;;;;;5030382;28;20037;-85
2021/05/02 04:54:03;;;;;;;19.48;15.30;;;8.30;1.00;;;;;;5031409;28;20482;-85
2021/05/02 04:56:29;;;;;;;17.75;14.45;;;8.20;1.00;;;;;;5029521;28;20064;-85
2021/05/02 04:58:55;;;;;;;18.55;14.30;;;8.30;1.00;;;;;;5029566;28;20082;-85
2021/05/02 05:01:21;;;;;;;18.23;15.23;;;8.40;1.00;;;;;;5029745;28;20033;-85
2021/05/02 05:03:47;;;;;;;24.55;17.50;;;8.40;1.00;;;;;;5029369;28;20088;-85
2021/05/02 05:06:13;;;;;;;20.42;16.63;;;8.40;1.00;;;;;;5032042;28;20030;-85
2021/05/02 05:08:39;;;;;;;21.73;15.13;;;8.40;1.00;;;;;;5029441;28;20462;-84
2021/05/02 05:11:05;;;;;;;17.70;14.25;;;8.50;1.00;;;;;;5027899;28;20032;-85
2021/05/02 05:13:31;;;;;;;17.70;14.35;;;8.50;1.00;;;;;;5030240;28;20099;-85
2021/05/02 05:15:58;;;;;;;16.42;13.15;;;8.80;1.00;;;;;;5032011;28;20105;-85
2021/05/02 05:18:24;;;;;;;19.15;13.98;;;8.40;1.00;;;;;;5030022;28;20052;-85
2021/05/02 05:20:50;;;;;;;16.42;13.48;;;8.60;1.00;;;;;;5033379;28;20029;-85
2021/05/02 05:23:16;;;;;;;15.77;12.90;;;8.80;1.00;;;;;;5031975;28;20453;-85
2021/05/02 05:25:42;;;;;;;16.42;13.50;;;8.80;1.00;;;;;;5032768;28;20112;-85
2021/05/02 05:28:07;;;;;;;17.10;14.07;;;8.90;1.00;;;;;;5033461;28;20044;-85
2021/05/02 05:30:34;;;;;;;17.17;13.50;;;9.00;1.00;;;;;;5034342;28;20456;-85
2021/05/02 05:33:04;;;;;;;19.35;14.25;;;9.20;1.00;;;;;;5033017;28;20053;-85
2021/05/02 05:35:30;;;;;;;17.70;14.30;;;9.30;1.00;;;;;;5030062;28;20041;-87
2021/05/02 05:37:55;;;;;;;17.75;15.07;;;9.40;1.00;;;;;;5032462;28;20821;-88
2021/05/02 05:40:21;;;;;;;18.30;14.05;;;9.30;1.00;;;;;;5033186;28;20044;-86
2021/05/02 05:42:47;;;;;;;19.45;15.48;;;9.30;1.00;;;;;;5031922;28;20030;-86
2021/05/02 05:45:13;;;;;;;18.60;14.90;;;9.30;1.00;;;;;;5035241;28;20564;-86
2021/05/02 05:47:39;;;;;;;20.20;16.30;;;9.40;1.00;;;;;;5030949;28;20397;-87
2021/05/02 05:50:11;;;;;;;20.67;16.50;;;9.50;1.00;;;;;;5033279;28;20032;-87
2021/05/02 05:52:37;;;;;;;22.60;17.85;;;9.70;1.00;;;;;;5032331;28;20045;-85
2021/05/02 05:55:03;;;;;;;24.33;19.08;;;9.90;1.00;;;;;;5032615;28;20060;-85
2021/05/02 05:57:29;;;;;;;21.40;18.17;;;10.20;1.00;;;;;;5034004;28;20038;-85
2021/05/02 05:59:54;;;;;;;22.17;19.33;;;10.20;1.00;;;;;;5032627;28;20107;-85
2021/05/02 06:02:20;;;;;;;20.25;18.02;;;10.20;1.00;;;;;;5029904;28;20035;-84
2021/05/02 06:04:46;;;;;;;22.92;19.20;;;10.30;1.00;;;;;;5031989;28;20022;-84
2021/05/02 06:07:12;;;;;;;20.52;18.30;;;10.30;1.00;;;;;;5031675;28;20409;-84
2021/05/02 06:09:37;;;;;;;23.00;19.02;;;10.30;1.00;;;;;;5032938;28;20101;-85
2021/05/02 06:12:03;;;;;;;24.33;20.60;;;10.30;1.00;;;;;;5033343;28;20018;-85
2021/05/02 06:14:29;;;;;;;22.08;18.77;;;10.40;1.00;;;;;;5032076;28;20045;-85
2021/05/02 06:16:55;;;;;;;21.55;18.13;;;10.40;1.00;;;;;;5030519;28;20022;-85
2021/05/02 06:19:20;;;;;;;22.52;19.10;;;10.30;1.00;;;;;;5030442;28;20041;-84
2021/05/02 06:21:46;;;;;;;20.45;18.23;;;10.10;1.00;;;;;;5032999;28;20034;-84
2021/05/02 06:24:11;;;;;;;20.55;18.38;;;10.00;1.00;;;;;;5034377;28;20036;-85
2021/05/02 06:26:37;;;;;;;22.58;18.33;;;9.90;1.00;;;;;;5031281;28;20026;-85
2021/05/02 06:29:03;;;;;;;21.27;18.83;;;9.70;1.00;;;;;;5031881;28;20029;-85
2021/05/02 06:31:28;;;;;;;22.70;18.08;;;9.80;1.00;;;;;;5030530;28;20109;-85
2021/05/02 06:33:54;;;;;;;21.60;18.00;;;10.00;1.00;;;;;;5032776;28;20421;-85
2021/05/02 06:36:20;;;;;;;19.80;17.60;;;10.40;1.00;;;;;;5033706;28;20107;-85
2021/05/02 06:38:45;;;;;;;18.40;15.68;;;10.50;1.00;;;;;;5031315;28;20128;-84
2021/05/02 06:41:11;;;;;;;18.02;16.13;;;10.30;1.00;;;;;;5030119;28;20034;-85
2021/05/02 06:43:36;;;;;;;17.15;15.35;;;10.60;1.00;;;;;;5031949;28;20026;-84
2021/05/02 06:46:03;;;;;;;21.45;17.02;;;9.90;1.00;;;;;;5030518;28;20529;-85
2021/05/02 06:48:29;;;;;;;18.02;15.02;;;10.30;1.00;;;;;;5033296;28;20099;-83
2021/05/02 06:50:55;;;;;;;16.70;15.00;;;9.90;1.00;;;;;;5031762;28;20102;-85
2021/05/02 06:53:20;;;;;;;19.42;16.42;;;9.80;1.00;;;;;;5030770;28;20061;-84
2021/05/02 06:55:46;;;;;;;17.35;15.52;;;9.80;1.00;;;;;;5029899;28;20029;-85
2021/05/02 06:58:12;;;;;;;18.35;16.20;;;9.60;1.00;;;;;;5029893;28;20074;-85
2021/05/02 07:00:38;;;;;;;21.27;18.45;;;9.50;1.00;;;;;;5031204;28;20038;-85
2021/05/02 07:03:05;;;;;;;23.45;20.95;;;9.40;1.00;;;;;;5033652;28;20024;-85
2021/05/02 07:05:32;;;;;;;16.58;14.85;;;9.30;1.00;;;;;;5029338;28;20026;-85
2021/05/02 07:07:57;;;;;;;20.88;18.58;;;9.00;1.00;;;;;;5030777;28;20022;-86
2021/05/02 07:10:23;;;;;;;36.10;27.83;;;9.00;1.00;;;;;;5032271;28;20052;-83
2021/05/02 07:12:48;;;;;;;25.02;20.23;;;9.00;1.00;;;;;;5031060;28;20030;-85
2021/05/02 07:15:15;;;;;;;17.50;15.23;;;9.10;1.00;;;;;;5032382;28;20387;-84
2021/05/02 07:17:41;;;;;;;17.42;15.52;;;9.10;1.00;;;;;;5031299;28;20105;-85
2021/05/02 07:20:09;;;;;;;15.63;13.95;;;9.10;1.00;;;;;;5029045;28;20533;-85
2021/05/02 07:22:35;;;;;;;16.65;14.95;;;9.10;1.00;;;;;;5030881;28;20048;-83
2021/05/02 07:25:00;;;;;;;18.10;15.93;;;9.10;1.00;;;;;;5031372;28;20049;-84
2021/05/02 07:27:26;;;;;;;17.85;15.30;;;9.10;1.00;;;;;;5032847;28;20022;-85
2021/05/02 07:29:52;;;;;;;18.65;16.65;;;9.20;1.00;;;;;;5027850;28;20038;-84
2021/05/02 07:32:17;;;;;;;17.45;15.65;;;9.20;1.00;;;;;;5029176;28;20049;-82
2021/05/02 07:34:43;;;;;;;19.17;17.17;;;9.30;1.00;;;;;;5030779;28;20029;-85
2021/05/02 07:37:10;;;;;;;22.55;18.88;;;9.30;1.00;;;;;;5030742;28;20037;-82
2021/05/02 07:39:36;;;;;;;20.15;17.23;;;9.80;1.00;;;;;;5030535;28;20061;-84
2021/05/02 07:42:02;;;;;;;20.75;18.08;;;9.70;1.00;;;;;;5031500;28;20053;-84
2021/05/02 07:44:28;;;;;;;19.92;17.50;;;9.70;1.00;;;;;;5029417;28;20072;-83
2021/05/02 07:46:54;;;;;;;22.15;17.45;;;9.80;1.00;;;;;;5029719;28;20502;-84
2021/05/02 07:49:19;;;;;;;18.73;16.80;;;10.20;1.00;;;;;;5029322;28;20394;-84
2021/05/02 07:51:45;;;;;;;18.48;16.27;;;10.40;1.00;;;;;;5030617;28;20044;-84
2021/05/02 07:54:11;;;;;;;18.75;16.85;;;10.50;1.00;;;;;;5032012;28;20021;-84
2021/05/02 07:56:36;;;;;;;19.05;17.13;;;10.70;1.00;;;;;;5029669;28;20021;-84
2021/05/02 07:59:02;;;;;;;18.55;16.55;;;10.90;1.00;;;;;;5028683;28;20034;-85
2021/05/02 08:01:28;;;;;;;17.15;15.45;;;11.10;1.00;;;;;;5030575;28;20017;-84
2021/05/02 08:03:53;;;;;;;18.30;15.40;;;11.10;99.90;;;;;;5030153;28;20403;-85
2021/05/02 08:06:19;;;;;;;16.33;14.63;;;11.00;1.00;;;;;;5032752;28;20021;-84
2021/05/02 08:08:44;;;;;;;16.58;14.85;;;11.00;99.90;;;;;;5030272;28;20028;-85
2021/05/02 08:11:10;;;;;;;16.33;14.60;;;11.20;99.90;;;;;;5029746;28;20029;-85
2021/05/02 08:13:36;;;;;;;18.50;13.68;;;11.40;99.90;;;;;;5029158;28;20024;-85
2021/05/02 08:16:02;;;;;;;15.80;14.20;;;11.50;99.90;;;;;;5030277;28;20588;-85
2021/05/02 08:18:28;;;;;;;15.20;13.65;;;11.60;99.90;;;;;;5031576;28;20025;-84
2021/05/02 08:20:54;;;;;;;15.55;13.80;;;11.60;99.90;;;;;;5030598;28;20083;-84
2021/05/02 08:23:19;;;;;;;14.65;13.13;;;12.00;99.90;;;;;;5030242;28;20037;-84
2021/05/02 08:25:45;;;;;;;14.82;13.32;;;11.60;99.90;;;;;;5028054;28;20033;-84
2021/05/02 08:28:10;;;;;;;14.70;13.20;;;11.60;99.90;;;;;;5029198;28;20025;-84
2021/05/02 08:30:36;;;;;;;14.07;12.68;;;11.60;99.90;;;;;;5031277;28;20022;-84
2021/05/02 08:33:01;;;;;;;14.32;12.80;;;11.70;99.90;;;;;;5029858;28;20111;-85
2021/05/02 08:35:27;;;;;;;14.02;12.63;;;11.90;99.90;;;;;;5028301;28;20022;-84
2021/05/02 08:37:53;;;;;;;14.95;13.55;;;12.30;99.90;;;;;;5028999;28;20485;-84
2021/05/02 08:40:19;;;;;;;15.38;13.70;;;11.80;99.90;;;;;;5028256;28;20057;-84
2021/05/02 08:42:44;;;;;;;14.18;12.82;;;11.90;99.90;;;;;;5029682;28;20497;-84
2021/05/02 08:45:11;;;;;;;13.80;12.30;;;12.20;99.90;;;;;;5031854;28;20021;-84
2021/05/02 08:47:36;;;;;;;12.48;11.20;;;11.30;99.90;;;;;;5029880;28;20409;-84
2021/05/02 08:50:07;;;;;;;12.75;11.48;;;11.60;99.90;;;;;;5030523;28;20026;-84
2021/05/02 08:52:32;;;;;;;13.95;12.55;;;11.50;99.90;;;;;;5032099;28;20029;-84
2021/05/02 08:54:58;;;;;;;16.83;11.73;;;11.50;99.90;;;;;;5033346;28;20049;-85
2021/05/02 08:57:24;;;;;;;12.70;11.40;;;11.50;99.90;;;;;;5033797;28;20363;-84
2021/05/02 08:59:50;;;;;;;12.15;10.63;;;11.50;99.90;;;;;;5032947;28;20041;-84
2021/05/02 09:02:23;;;;;;;12.68;11.48;;;11.40;99.90;;;;;;5033327;28;20037;-84
2021/05/02 09:04:56;;;;;;;13.05;11.85;;;11.70;99.90;;;;;;5033096;28;20066;-84
2021/05/02 09:07:22;;;;;;;12.40;11.13;;;12.00;99.90;;;;;;5033485;28;20021;-85
2021/05/02 09:09:49;;;;;;;12.80;11.32;;;12.00;99.90;;;;;;5032908;28;20034;-83
2021/05/02 09:12:23;;;;;;;12.00;10.80;;;12.30;99.90;;;;;;5050103;28;20386;-85
2021/05/02 09:14:49;;;;;;;12.27;11.07;;;12.20;99.90;;;;;;5032975;28;20036;-85
2021/05/02 09:17:29;;;;;;;11.55;9.95;;;12.60;99.90;;;;;;5030861;28;20021;-84
2021/05/02 09:19:56;;;;;;;12.65;11.30;;;13.00;99.90;;;;;;5024159;28;20033;-85
2021/05/02 09:22:23;;;;;;;11.93;10.70;;;13.50;99.90;;;;;;5032936;28;20104;-85
2021/05/02 09:25:14;;;;;;;11.50;10.40;;;13.90;99.90;;;;;;5032284;28;20042;-85
2021/05/02 09:27:50;;;;;;;11.77;10.57;;;14.00;99.90;;;;;;5030993;28;20045;-85
2021/05/02 09:30:17;;;;;;;11.55;10.20;;;13.90;99.90;;;;;;5033623;28;21199;-84
2021/05/02 09:32:48;;;;;;;12.73;11.40;;;13.90;99.90;;;;;;5031174;28;20107;-84
2021/05/02 09:35:24;;;;;;;12.57;10.43;;;13.80;99.90;;;;;;5030324;28;20033;-85
2021/05/02 09:37:49;;;;;;;12.45;11.20;;;13.20;99.90;;;;;;5032734;28;20029;-85
2021/05/02 09:40:18;;;;;;;12.25;10.95;;;13.10;99.90;;;;;;5031873;28;20042;-85
2021/05/02 09:42:48;;;;;;;12.50;11.20;;;13.00;99.90;;;;;;5032617;28;20025;-84
2021/05/02 09:45:14;;;;;;;13.43;11.38;;;13.10;99.90;;;;;;5033480;28;20030;-84
2021/05/02 09:47:46;;;;;;;13.98;12.55;;;12.90;99.90;;;;;;5029298;28;20034;-85
2021/05/02 09:50:22;;;;;;;13.38;11.98;;;12.50;99.90;;;;;;5030975;28;20079;-85
2021/05/02 09:53:06;;;;;;;12.68;11.43;;;12.30;99.90;;;;;;5032407;28;20026;-84
2021/05/02 09:55:44;;;;;;;13.35;11.77;;;12.30;99.90;;;;;;5030719;28;20053;-85
2021/05/02 09:58:18;;;;;;;15.48;12.02;;;12.20;99.90;;;;;;5031112;28;20037;-85
2021/05/02 10:00:45;;;;;;;13.13;11.60;;;12.00;99.90;;;;;;5032131;28;20117;-85
2021/05/02 10:03:13;;;;;;;13.10;11.70;;;11.90;99.90;;;;;;5033062;28;20595;-85
2021/05/02 10:05:59;;;;;;;13.02;11.73;;;11.90;99.90;;;;;;5032306;28;20053;-85
2021/05/02 10:08:27;;;;;;;12.75;11.30;;;12.10;99.90;;;;;;5031504;28;20258;-87
2021/05/02 10:10:57;;;;;;;13.45;11.75;;;12.50;99.90;;;;;;5031634;28;20037;-87
2021/05/02 10:13:24;;;;;;;13.60;12.20;;;12.70;99.90;;;;;;5031035;28;20572;-87
2021/05/02 10:15:50;;;;;;;13.65;12.25;;;12.70;99.90;;;;;;5033014;28;20028;-86
2021/05/02 10:18:16;;;;;;;13.05;11.18;;;13.00;99.90;;;;;;5034164;28;20025;-95
2021/05/02 10:20:47;;;;;;;11.27;10.20;;;13.40;99.90;;;;;;5032537;28;20041;-92
2021/05/02 10:23:14;;;;;;;11.88;10.77;;;13.40;99.90;;;;;;5030626;28;20116;-88
2021/05/02 10:25:41;;;;;;;11.32;10.13;;;14.10;99.90;;;;;;5032288;28;20021;-93
2021/05/02 10:28:07;;;;;;;11.32;10.23;;;14.00;99.90;;;;;;5032539;28;20036;-92
2021/05/02 10:30:38;;;;;;;11.85;10.65;;;14.10;99.90;;;;;;5033974;28;20044;-93
2021/05/02 10:33:09;;;;;;;10.88;9.15;;;14.70;99.90;;;;;;5031875;28;20058;-89
2021/05/02 10:35:52;;;;;;;10.45;9.45;;;15.80;99.90;;;;;;5030917;28;20124;-92
2021/05/02 10:38:41;;;;;;;10.00;9.10;;;15.80;99.90;;;;;;5031595;28;20072;-88
2021/05/02 10:41:30;;;;;;;11.38;9.80;;;15.90;99.90;;;;;;5032331;28;20041;-89
2021/05/02 10:43:58;;;;;;;10.75;9.50;;;15.90;99.90;;;;;;5031591;28;20029;-90
2021/05/02 10:46:52;;;;;;;9.95;9.00;;;16.60;99.90;;;;;;5030951;28;20112;-88
2021/05/02 10:49:18;;;;;;;8.85;8.02;;;17.10;99.90;;;;;;5019218;28;20387;-91
2021/05/02 10:51:47;;;;;;;9.05;8.18;;;18.20;99.90;;;;;;5032062;28;20080;-94
2021/05/02 10:54:19;;;;;;;9.27;8.38;;;20.90;99.90;;;;;;5032293;28;20026;-86
2021/05/02 10:56:51;;;;;;;9.20;8.32;;;24.10;99.90;;;;;;5030844;28;20029;-92
2021/05/02 10:59:25;;;;;;;8.73;7.93;;;27.60;99.90;;;;;;5032096;28;20401;-93
2021/05/02 11:01:52;;;;;;;9.30;8.40;;;29.40;99.90;;;;;;5030800;28;20401;-85
2021/05/02 11:04:19;;;;;;;8.70;7.88;;;28.70;99.90;;;;;;5031965;28;20037;-89
2021/05/02 11:06:44;;;;;;;8.70;7.88;;;27.10;99.90;;;;;;5030890;28;20021;-89
2021/05/02 11:09:12;;;;;;;8.48;7.60;;;24.30;99.90;;;;;;5031910;28;20079;-85
2021/05/02 11:11:41;;;;;;;8.20;7.50;;;26.80;99.90;;;;;;5031075;28;20025;-84
2021/05/02 11:14:10;;;;;;;9.20;8.30;;;27.20;99.90;;;;;;5029465;28;20378;-87
2021/05/02 11:16:54;;;;;;;9.27;8.45;;;28.50;99.90;;;;;;5031354;28;20079;-84
2021/05/02 11:19:20;;;;;;;9.02;8.10;;;28.20;99.90;;;;;;5030530;28;20116;-85
2021/05/02 11:21:51;;;;;;;9.50;8.65;;;26.40;99.90;;;;;;5029539;28;20549;-85
2021/05/02 11:24:18;;;;;;;8.70;7.90;;;27.90;99.90;;;;;;5032344;28;20029;-86
2021/05/02 11:27:18;;;;;;;8.35;7.57;;;28.20;99.90;;;;;;5030145;28;20021;-85
2021/05/02 11:32:27;;;;;;;8.75;7.95;;;28.00;99.90;;;;;;5030144;28;20053;-85
2021/05/02 11:34:55;;;;;;;8.93;8.05;;;24.50;99.90;;;;;;5030241;28;20028;-85
2021/05/02 11:37:51;;;;;;;8.10;7.40;;;25.80;99.90;;;;;;5030702;28;20029;-85
2021/05/02 11:40:19;;;;;;;8.02;7.22;;;25.80;99.90;;;;;;5017008;28;20048;-86
2021/05/02 11:42:55;;;;;;;8.48;7.68;;;24.40;99.90;;;;;;5030149;28;20470;-86
2021/05/02 11:45:23;;;;;;;8.00;7.22;;;29.00;99.90;;;;;;5032116;28;20026;-86
2021/05/02 11:47:49;;;;;;;8.07;7.28;;;24.70;99.90;;;;;;5030564;28;20535;-86
2021/05/02 11:50:16;;;;;;;9.00;8.18;;;22.70;99.90;;;;;;5028708;28;20033;-85
2021/05/02 11:52:50;;;;;;;8.57;7.88;;;21.00;99.90;;;;;;5028904;28;20025;-86
2021/05/02 11:55:28;;;;;;;8.45;7.65;;;19.60;99.90;;;;;;5030227;28;20418;-86
2021/05/02 11:57:56;;;;;;;8.60;7.40;;;19.70;99.90;;;;;;5030529;28;20022;-86
2021/05/02 12:00:49;;;;;;;8.27;7.50;;;23.80;99.90;;;;;;5031572;28;20052;-86
2021/05/02 12:03:17;;;;;;;7.45;6.72;;;26.20;99.90;;;;;;5029747;28;20037;-86
2021/05/02 12:05:49;;;;;;;8.00;7.20;;;26.90;99.90;;;;;;5029544;28;20033;-86
2021/05/02 12:08:16;;;;;;;7.28;6.57;;;27.80;99.90;;;;;;5030511;28;20112;-86
2021/05/02 12:10:43;;;;;;;8.73;6.50;;;27.90;99.90;;;;;;5029561;28;20047;-87
2021/05/02 12:13:33;;;;;;;7.38;6.68;;;24.70;99.90;;;;;;5030054;28;20029;-87
2021/05/02 12:16:00;;;;;;;6.90;6.30;;;21.30;99.90;;;;;;5015447;28;20034;-87
2021/05/02 12:18:53;;;;;;;4.75;4.28;;;19.40;99.90;;;;;;5031588;28;20026;-87
2021/05/02 12:21:28;;;;;;;4.30;3.90;;;22.20;99.90;;;;;;5032718;28;20060;-86
2021/05/02 12:24:17;;;;;;;3.97;3.58;;;24.40;99.90;;;;;;5030193;28;20029;-86
2021/05/02 12:26:58;;;;;;;4.10;3.53;;;26.10;99.90;;;;;;5033346;28;20033;-87
2021/05/02 12:29:24;;;;;;;3.55;3.25;;;28.60;99.90;;;;;;5034383;28;20476;-87
2021/05/02 12:32:11;;;;;;;5.50;4.93;;;29.50;99.90;;;;;;5031806;28;20458;-86
2021/05/02 12:34:47;;;;;;;5.88;5.38;;;28.40;99.90;;;;;;5033778;28;20036;-87
2021/05/02 12:37:18;;;;;;;5.45;5.05;;;27.40;99.90;;;;;;5034173;28;20030;-87
2021/05/02 12:39:46;;;;;;;4.63;4.22;;;28.80;99.90;;;;;;5033965;28;20033;-88
2021/05/02 12:42:12;;;;;;;5.35;4.80;;;28.00;99.90;;;;;;5035497;28;20029;-90
2021/05/02 12:44:39;;;;;;;4.65;4.15;;;26.80;99.90;;;;;;5034312;28;20032;-89
2021/05/02 12:47:17;;;;;;;5.00;4.60;;;27.80;99.90;;;;;;5033803;28;20536;-89
2021/05/02 12:50:05;;;;;;;5.38;4.75;;;28.40;99.90;;;;;;5034127;28;20057;-90
2021/05/02 12:52:35;;;;;;;5.63;5.13;;;27.50;99.90;;;;;;5033318;28;20024;-89
2021/05/02 12:55:27;;;;;;;4.85;4.45;;;26.30;99.90;;;;;;5033062;28;20031;-88